Airfield :







YOU CAN JOIN US ON...

 
LOGIN :

Register | Disclaimer

   EN    FR    IT 

 









Legend :    VFR   Marginal VFR   IFR   Intensive IFR   Very Intensive IFR
Visi :
Ceiling :
>= 8 km
>= 3000ft
5 to 8 km
1000 to 3000 ft
1500m to 5 km
500 to 1000 ft
800 to 1500m
200 to 500 ft
< 800m
< 200 ft
Symbols :   Thunderstorms  Fog  Heavy snow  Heavy precipitations  Wind > 20 kt






- Airport Elevation : 192 ft
- IATA code : BGR


KBGR - Bangor International

CURRENT METAR :
  • 021653Z 23006G14KT 10SM FEW040 FEW080 BKN110 25/19 A2978 RMK AO2 SLP080 T02500189

EXPIRED METARs :
  • 021553Z 27008KT 10SM FEW040 FEW080 BKN110 25/19 A2979 RMK AO2 SLP086 T02500189
  • 021453Z VRB05KT 10SM FEW037 FEW080 BKN110 23/19 A2979 RMK AO2 RAE35 SLP083 P0001 60020 T02280194 57005
  • 020253Z 21003KT 10SM SCT110 BKN250 21/17 A2983 RMK AO2 SLP098 T02060172 53004

TAF KBGR
Valid from the 02 at 13:00 until the 03 at 12:00 UTC


021258Z 0213/0312 19004KT 3SM -SHRA VCTS SCT020CB OVC035
FM021330 22007KT P6SM VCSH FEW030 BKN040
FM021800 23009KT P6SM VCSH BKN050
FM022200 24007KT P6SM SCT060
FM030900 28004KT P6SM SCT045
KZBW FIR / North America



MET'MAP, your aeronautical weather chart ! - Copyright ORBIFLY December 2007 - Disclaimer

ORBIFLY MET'MAP TEAM :

Programming & Development : Alexandra Zaïnal
Original concept : Baudouin d'Aumeries
Technical & hardware support : Manuel Goepfert
Assistance : Marc-Olivier Méhu




SOURCES & CREDITS :

   NOAA